sensor_id;sensor_type;location;lat;lon;timestamp;P1;durP1;ratioP1;P2;durP2;ratioP2
68854;SDS011;69984;-43.570;172.580;2024-02-26T00:02:06;9.40;;;1.17;;
68854;SDS011;69984;-43.570;172.580;2024-02-26T00:04:33;9.50;;;1.10;;
68854;SDS011;69984;-43.570;172.580;2024-02-26T00:07:00;7.82;;;1.48;;
68854;SDS011;69984;-43.570;172.580;2024-02-26T00:09:27;9.93;;;1.27;;
68854;SDS011;69984;-43.570;172.580;2024-02-26T00:11:54;9.82;;;1.08;;
68854;SDS011;69984;-43.570;172.580;2024-02-26T00:14:21;3.63;;;1.10;;
68854;SDS011;69984;-43.570;172.580;2024-02-26T00:16:47;6.75;;;1.25;;
68854;SDS011;69984;-43.570;172.580;2024-02-26T00:19:14;5.07;;;0.90;;
68854;SDS011;69984;-43.570;172.580;2024-02-26T00:21:41;6.68;;;1.10;;
68854;SDS011;69984;-43.570;172.580;2024-02-26T00:24:08;2.65;;;0.90;;
68854;SDS011;69984;-43.570;172.580;2024-02-26T00:26:35;5.38;;;1.00;;
68854;SDS011;69984;-43.570;172.580;2024-02-26T00:29:02;9.52;;;1.23;;
68854;SDS011;69984;-43.570;172.580;2024-02-26T00:31:29;4.10;;;0.88;;
68854;SDS011;69984;-43.570;172.580;2024-02-26T00:33:56;8.07;;;1.45;;
68854;SDS011;69984;-43.570;172.580;2024-02-26T00:36:23;10.95;;;1.13;;
68854;SDS011;69984;-43.570;172.580;2024-02-26T00:38:50;7.75;;;1.38;;
68854;SDS011;69984;-43.570;172.580;2024-02-26T00:41:18;3.90;;;1.20;;
68854;SDS011;69984;-43.570;172.580;2024-02-26T00:43:46;7.95;;;1.50;;
68854;SDS011;69984;-43.570;172.580;2024-02-26T00:46:13;7.28;;;1.17;;
68854;SDS011;69984;-43.570;172.580;2024-02-26T00:48:40;14.35;;;1.45;;
68854;SDS011;69984;-43.570;172.580;2024-02-26T00:51:07;8.18;;;2.28;;
68854;SDS011;69984;-43.570;172.580;2024-02-26T00:53:34;9.68;;;2.00;;
68854;SDS011;69984;-43.570;172.580;2024-02-26T00:56:01;13.30;;;1.35;;
68854;SDS011;69984;-43.570;172.580;2024-02-26T00:58:28;7.38;;;0.85;;
68854;SDS011;69984;-43.570;172.580;2024-02-26T01:00:55;8.88;;;1.52;;
68854;SDS011;69984;-43.570;172.580;2024-02-26T01:03:22;4.25;;;1.05;;
68854;SDS011;69984;-43.570;172.580;2024-02-26T01:05:49;14.15;;;1.42;;
68854;SDS011;69984;-43.570;172.580;2024-02-26T01:08:16;14.27;;;1.30;;
68854;SDS011;69984;-43.570;172.580;2024-02-26T01:10:43;2.35;;;0.95;;
68854;SDS011;69984;-43.570;172.580;2024-02-26T01:13:11;8.52;;;1.10;;
68854;SDS011;69984;-43.570;172.580;2024-02-26T01:15:38;6.75;;;1.30;;
68854;SDS011;69984;-43.570;172.580;2024-02-26T01:18:05;16.95;;;1.65;;
68854;SDS011;69984;-43.570;172.580;2024-02-26T01:20:32;7.25;;;1.58;;
68854;SDS011;69984;-43.570;172.580;2024-02-26T01:22:59;6.75;;;0.80;;
68854;SDS011;69984;-43.570;172.580;2024-02-26T01:25:25;6.05;;;1.00;;
68854;SDS011;69984;-43.570;172.580;2024-02-26T01:27:53;5.40;;;1.10;;
68854;SDS011;69984;-43.570;172.580;2024-02-26T01:30:20;5.47;;;1.00;;
68854;SDS011;69984;-43.570;172.580;2024-02-26T01:32:47;7.90;;;1.70;;
68854;SDS011;69984;-43.570;172.580;2024-02-26T01:35:14;15.27;;;1.45;;
68854;SDS011;69984;-43.570;172.580;2024-02-26T01:37:41;7.88;;;1.50;;
68854;SDS011;69984;-43.570;172.580;2024-02-26T01:40:08;3.97;;;0.90;;
68854;SDS011;69984;-43.570;172.580;2024-02-26T01:42:38;7.85;;;1.55;;
68854;SDS011;69984;-43.570;172.580;2024-02-26T01:45:05;4.03;;;1.08;;
68854;SDS011;69984;-43.570;172.580;2024-02-26T01:47:40;14.02;;;1.65;;
68854;SDS011;69984;-43.570;172.580;2024-02-26T01:50:08;9.50;;;1.30;;
68854;SDS011;69984;-43.570;172.580;2024-02-26T01:52:35;3.42;;;0.77;;
68854;SDS011;69984;-43.570;172.580;2024-02-26T01:55:02;7.75;;;1.00;;
68854;SDS011;69984;-43.570;172.580;2024-02-26T01:57:29;11.20;;;1.60;;
68854;SDS011;69984;-43.570;172.580;2024-02-26T01:59:56;7.47;;;1.38;;
68854;SDS011;69984;-43.570;172.580;2024-02-26T02:02:23;8.57;;;1.45;;
68854;SDS011;69984;-43.570;172.580;2024-02-26T02:04:50;6.78;;;1.40;;
68854;SDS011;69984;-43.570;172.580;2024-02-26T02:07:18;8.77;;;1.73;;
68854;SDS011;69984;-43.570;172.580;2024-02-26T02:09:47;10.52;;;1.27;;
68854;SDS011;69984;-43.570;172.580;2024-02-26T02:12:14;6.57;;;1.10;;
68854;SDS011;69984;-43.570;172.580;2024-02-26T02:14:41;5.70;;;1.35;;
68854;SDS011;69984;-43.570;172.580;2024-02-26T02:17:08;14.20;;;1.38;;
68854;SDS011;69984;-43.570;172.580;2024-02-26T02:19:35;8.98;;;1.20;;
68854;SDS011;69984;-43.570;172.580;2024-02-26T02:22:02;4.75;;;1.02;;
68854;SDS011;69984;-43.570;172.580;2024-02-26T02:24:29;8.13;;;1.42;;
68854;SDS011;69984;-43.570;172.580;2024-02-26T02:26:56;10.68;;;1.70;;
68854;SDS011;69984;-43.570;172.580;2024-02-26T02:29:23;10.43;;;1.33;;
68854;SDS011;69984;-43.570;172.580;2024-02-26T02:31:50;12.82;;;1.83;;
68854;SDS011;69984;-43.570;172.580;2024-02-26T02:34:17;12.45;;;1.95;;
68854;SDS011;69984;-43.570;172.580;2024-02-26T02:36:53;9.52;;;1.10;;
68854;SDS011;69984;-43.570;172.580;2024-02-26T02:39:20;12.15;;;1.33;;
68854;SDS011;69984;-43.570;172.580;2024-02-26T02:41:47;4.03;;;0.80;;
68854;SDS011;69984;-43.570;172.580;2024-02-26T02:44:14;5.43;;;1.30;;
68854;SDS011;69984;-43.570;172.580;2024-02-26T02:46:41;13.73;;;2.50;;
68854;SDS011;69984;-43.570;172.580;2024-02-26T02:49:09;24.30;;;2.25;;
68854;SDS011;69984;-43.570;172.580;2024-02-26T02:51:36;6.00;;;1.33;;
68854;SDS011;69984;-43.570;172.580;2024-02-26T02:54:03;10.00;;;1.30;;
68854;SDS011;69984;-43.570;172.580;2024-02-26T02:56:30;6.40;;;1.13;;
68854;SDS011;69984;-43.570;172.580;2024-02-26T02:58:57;9.13;;;1.02;;
68854;SDS011;69984;-43.570;172.580;2024-02-26T03:01:24;5.63;;;1.50;;
68854;SDS011;69984;-43.570;172.580;2024-02-26T03:03:51;10.88;;;1.77;;
68854;SDS011;69984;-43.570;172.580;2024-02-26T03:06:18;7.90;;;1.58;;
68854;SDS011;69984;-43.570;172.580;2024-02-26T03:08:46;6.53;;;1.15;;
68854;SDS011;69984;-43.570;172.580;2024-02-26T03:11:14;3.65;;;1.00;;
68854;SDS011;69984;-43.570;172.580;2024-02-26T03:13:41;7.13;;;1.13;;
68854;SDS011;69984;-43.570;172.580;2024-02-26T03:16:08;10.00;;;1.50;;
68854;SDS011;69984;-43.570;172.580;2024-02-26T03:18:35;6.30;;;0.98;;
68854;SDS011;69984;-43.570;172.580;2024-02-26T03:21:04;11.15;;;1.95;;
68854;SDS011;69984;-43.570;172.580;2024-02-26T03:23:31;12.35;;;1.65;;
68854;SDS011;69984;-43.570;172.580;2024-02-26T03:26:03;3.30;;;1.20;;
68854;SDS011;69984;-43.570;172.580;2024-02-26T03:28:30;6.15;;;1.05;;
68854;SDS011;69984;-43.570;172.580;2024-02-26T03:31:01;8.95;;;1.20;;
68854;SDS011;69984;-43.570;172.580;2024-02-26T03:33:28;4.32;;;0.88;;
68854;SDS011;69984;-43.570;172.580;2024-02-26T03:35:55;5.43;;;1.23;;
68854;SDS011;69984;-43.570;172.580;2024-02-26T03:38:21;11.57;;;1.30;;
68854;SDS011;69984;-43.570;172.580;2024-02-26T03:40:48;8.25;;;1.15;;
68854;SDS011;69984;-43.570;172.580;2024-02-26T03:43:16;6.32;;;1.08;;
68854;SDS011;69984;-43.570;172.580;2024-02-26T03:45:43;5.93;;;1.67;;
68854;SDS011;69984;-43.570;172.580;2024-02-26T03:48:10;8.88;;;1.45;;
68854;SDS011;69984;-43.570;172.580;2024-02-26T03:50:37;16.05;;;1.48;;
68854;SDS011;69984;-43.570;172.580;2024-02-26T03:53:04;7.53;;;1.20;;
68854;SDS011;69984;-43.570;172.580;2024-02-26T03:55:31;7.53;;;1.35;;
68854;SDS011;69984;-43.570;172.580;2024-02-26T03:57:58;4.45;;;1.10;;
68854;SDS011;69984;-43.570;172.580;2024-02-26T04:00:25;8.35;;;1.27;;
68854;SDS011;69984;-43.570;172.580;2024-02-26T04:02:54;7.32;;;1.73;;
68854;SDS011;69984;-43.570;172.580;2024-02-26T04:05:21;5.57;;;1.10;;
68854;SDS011;69984;-43.570;172.580;2024-02-26T04:07:48;8.88;;;1.13;;
68854;SDS011;69984;-43.570;172.580;2024-02-26T04:10:15;12.50;;;1.48;;
68854;SDS011;69984;-43.570;172.580;2024-02-26T04:12:42;4.65;;;1.00;;
68854;SDS011;69984;-43.570;172.580;2024-02-26T04:15:09;6.47;;;1.23;;
68854;SDS011;69984;-43.570;172.580;2024-02-26T04:17:37;7.18;;;1.42;;
68854;SDS011;69984;-43.570;172.580;2024-02-26T04:20:04;7.22;;;1.05;;
68854;SDS011;69984;-43.570;172.580;2024-02-26T04:22:32;9.52;;;1.40;;
68854;SDS011;69984;-43.570;172.580;2024-02-26T04:24:59;3.92;;;1.10;;
68854;SDS011;69984;-43.570;172.580;2024-02-26T04:27:26;5.13;;;1.20;;
68854;SDS011;69984;-43.570;172.580;2024-02-26T04:29:53;7.25;;;1.30;;
68854;SDS011;69984;-43.570;172.580;2024-02-26T04:32:20;6.60;;;1.17;;
68854;SDS011;69984;-43.570;172.580;2024-02-26T04:34:47;6.75;;;1.30;;
68854;SDS011;69984;-43.570;172.580;2024-02-26T04:37:14;6.05;;;1.50;;
68854;SDS011;69984;-43.570;172.580;2024-02-26T04:39:41;6.00;;;1.30;;
68854;SDS011;69984;-43.570;172.580;2024-02-26T04:42:08;6.50;;;1.00;;
68854;SDS011;69984;-43.570;172.580;2024-02-26T04:44:35;13.20;;;1.67;;
68854;SDS011;69984;-43.570;172.580;2024-02-26T04:47:01;8.52;;;1.35;;
68854;SDS011;69984;-43.570;172.580;2024-02-26T04:49:28;8.15;;;1.40;;
68854;SDS011;69984;-43.570;172.580;2024-02-26T04:51:55;7.32;;;1.27;;
68854;SDS011;69984;-43.570;172.580;2024-02-26T04:54:23;9.70;;;1.10;;
68854;SDS011;69984;-43.570;172.580;2024-02-26T04:56:50;11.00;;;1.35;;
68854;SDS011;69984;-43.570;172.580;2024-02-26T04:59:17;8.77;;;1.60;;
68854;SDS011;69984;-43.570;172.580;2024-02-26T05:01:44;6.25;;;1.20;;
68854;SDS011;69984;-43.570;172.580;2024-02-26T05:04:11;9.35;;;1.38;;
68854;SDS011;69984;-43.570;172.580;2024-02-26T05:06:38;5.65;;;1.10;;
68854;SDS011;69984;-43.570;172.580;2024-02-26T05:09:05;8.25;;;1.10;;
68854;SDS011;69984;-43.570;172.580;2024-02-26T05:11:32;9.70;;;1.27;;
68854;SDS011;69984;-43.570;172.580;2024-02-26T05:13:58;8.80;;;1.20;;
68854;SDS011;69984;-43.570;172.580;2024-02-26T05:16:26;7.68;;;1.52;;
68854;SDS011;69984;-43.570;172.580;2024-02-26T05:18:55;10.32;;;1.70;;
68854;SDS011;69984;-43.570;172.580;2024-02-26T05:21:22;5.38;;;1.15;;
68854;SDS011;69984;-43.570;172.580;2024-02-26T05:23:49;9.35;;;1.40;;
68854;SDS011;69984;-43.570;172.580;2024-02-26T05:26:20;8.35;;;1.38;;
68854;SDS011;69984;-43.570;172.580;2024-02-26T05:28:48;13.43;;;1.17;;
68854;SDS011;69984;-43.570;172.580;2024-02-26T05:31:16;6.90;;;1.48;;
68854;SDS011;69984;-43.570;172.580;2024-02-26T05:33:44;11.60;;;2.60;;
68854;SDS011;69984;-43.570;172.580;2024-02-26T05:36:17;6.32;;;0.98;;
68854;SDS011;69984;-43.570;172.580;2024-02-26T05:38:47;7.03;;;1.40;;
68854;SDS011;69984;-43.570;172.580;2024-02-26T05:41:17;7.32;;;1.38;;
68854;SDS011;69984;-43.570;172.580;2024-02-26T05:43:49;6.45;;;1.52;;
68854;SDS011;69984;-43.570;172.580;2024-02-26T05:46:16;5.60;;;1.10;;
68854;SDS011;69984;-43.570;172.580;2024-02-26T05:48:44;8.98;;;1.42;;
68854;SDS011;69984;-43.570;172.580;2024-02-26T05:51:15;6.40;;;1.40;;
68854;SDS011;69984;-43.570;172.580;2024-02-26T05:53:42;11.25;;;1.20;;
68854;SDS011;69984;-43.570;172.580;2024-02-26T05:56:12;10.52;;;1.67;;
68854;SDS011;69984;-43.570;172.580;2024-02-26T05:58:39;13.55;;;1.83;;
68854;SDS011;69984;-43.570;172.580;2024-02-26T06:01:06;6.97;;;2.10;;
68854;SDS011;69984;-43.570;172.580;2024-02-26T06:03:33;9.75;;;1.92;;
68854;SDS011;69984;-43.570;172.580;2024-02-26T06:06:00;8.32;;;1.83;;
68854;SDS011;69984;-43.570;172.580;2024-02-26T06:08:27;12.35;;;1.75;;
68854;SDS011;69984;-43.570;172.580;2024-02-26T06:10:57;4.30;;;1.30;;
68854;SDS011;69984;-43.570;172.580;2024-02-26T06:13:24;12.95;;;1.90;;
68854;SDS011;69984;-43.570;172.580;2024-02-26T06:15:51;6.68;;;1.30;;
68854;SDS011;69984;-43.570;172.580;2024-02-26T06:18:18;6.22;;;1.17;;
68854;SDS011;69984;-43.570;172.580;2024-02-26T06:20:45;16.77;;;1.58;;
68854;SDS011;69984;-43.570;172.580;2024-02-26T06:23:12;12.90;;;1.80;;
68854;SDS011;69984;-43.570;172.580;2024-02-26T06:25:39;15.48;;;1.42;;
68854;SDS011;69984;-43.570;172.580;2024-02-26T06:30:34;11.77;;;1.88;;
68854;SDS011;69984;-43.570;172.580;2024-02-26T06:33:01;8.13;;;1.65;;
68854;SDS011;69984;-43.570;172.580;2024-02-26T06:35:28;6.75;;;1.05;;
68854;SDS011;69984;-43.570;172.580;2024-02-26T06:37:55;8.98;;;1.60;;
68854;SDS011;69984;-43.570;172.580;2024-02-26T06:40:22;7.55;;;1.63;;
68854;SDS011;69984;-43.570;172.580;2024-02-26T06:42:49;5.85;;;1.38;;
68854;SDS011;69984;-43.570;172.580;2024-02-26T06:45:16;13.15;;;1.70;;
68854;SDS011;69984;-43.570;172.580;2024-02-26T06:47:45;5.85;;;1.40;;
68854;SDS011;69984;-43.570;172.580;2024-02-26T06:50:12;9.45;;;1.60;;
68854;SDS011;69984;-43.570;172.580;2024-02-26T06:52:43;10.30;;;1.98;;
68854;SDS011;69984;-43.570;172.580;2024-02-26T06:55:11;8.80;;;1.58;;
68854;SDS011;69984;-43.570;172.580;2024-02-26T06:57:38;7.88;;;1.40;;
68854;SDS011;69984;-43.570;172.580;2024-02-26T07:00:05;8.35;;;1.60;;
68854;SDS011;69984;-43.570;172.580;2024-02-26T07:02:33;7.75;;;1.60;;
68854;SDS011;69984;-43.570;172.580;2024-02-26T07:05:00;8.00;;;1.52;;
68854;SDS011;69984;-43.570;172.580;2024-02-26T07:07:27;10.57;;;2.22;;
68854;SDS011;69984;-43.570;172.580;2024-02-26T07:09:54;4.45;;;1.50;;
68854;SDS011;69984;-43.570;172.580;2024-02-26T07:12:21;12.23;;;1.58;;
68854;SDS011;69984;-43.570;172.580;2024-02-26T07:14:49;8.23;;;1.88;;
68854;SDS011;69984;-43.570;172.580;2024-02-26T07:17:17;8.70;;;1.25;;
68854;SDS011;69984;-43.570;172.580;2024-02-26T07:19:45;10.57;;;1.85;;
68854;SDS011;69984;-43.570;172.580;2024-02-26T07:22:12;10.48;;;1.73;;
68854;SDS011;69984;-43.570;172.580;2024-02-26T07:24:39;12.70;;;2.20;;
68854;SDS011;69984;-43.570;172.580;2024-02-26T07:27:06;12.20;;;1.90;;
68854;SDS011;69984;-43.570;172.580;2024-02-26T07:29:33;13.00;;;1.73;;
68854;SDS011;69984;-43.570;172.580;2024-02-26T07:32:00;10.00;;;1.70;;
68854;SDS011;69984;-43.570;172.580;2024-02-26T07:34:27;17.00;;;2.08;;
68854;SDS011;69984;-43.570;172.580;2024-02-26T07:36:55;11.88;;;1.90;;
68854;SDS011;69984;-43.570;172.580;2024-02-26T07:39:22;7.22;;;1.23;;
68854;SDS011;69984;-43.570;172.580;2024-02-26T07:41:49;9.05;;;1.50;;
68854;SDS011;69984;-43.570;172.580;2024-02-26T07:44:18;5.13;;;1.08;;
68854;SDS011;69984;-43.570;172.580;2024-02-26T07:46:45;5.38;;;1.08;;
68854;SDS011;69984;-43.570;172.580;2024-02-26T07:49:12;7.38;;;1.52;;
68854;SDS011;69984;-43.570;172.580;2024-02-26T07:51:39;11.43;;;1.48;;
68854;SDS011;69984;-43.570;172.580;2024-02-26T07:54:06;10.68;;;1.75;;
68854;SDS011;69984;-43.570;172.580;2024-02-26T07:56:33;14.75;;;2.05;;
68854;SDS011;69984;-43.570;172.580;2024-02-26T07:59:00;10.77;;;2.25;;
68854;SDS011;69984;-43.570;172.580;2024-02-26T08:01:27;11.75;;;2.60;;
68854;SDS011;69984;-43.570;172.580;2024-02-26T08:03:54;14.10;;;2.15;;
68854;SDS011;69984;-43.570;172.580;2024-02-26T08:06:21;9.68;;;2.25;;
68854;SDS011;69984;-43.570;172.580;2024-02-26T08:08:48;13.27;;;2.08;;
68854;SDS011;69984;-43.570;172.580;2024-02-26T08:11:15;11.20;;;2.50;;
68854;SDS011;69984;-43.570;172.580;2024-02-26T08:13:42;9.68;;;1.42;;
68854;SDS011;69984;-43.570;172.580;2024-02-26T08:16:09;8.90;;;1.70;;
68854;SDS011;69984;-43.570;172.580;2024-02-26T08:18:37;9.88;;;1.67;;
68854;SDS011;69984;-43.570;172.580;2024-02-26T08:21:04;12.18;;;2.03;;
68854;SDS011;69984;-43.570;172.580;2024-02-26T08:23:31;9.73;;;1.98;;
68854;SDS011;69984;-43.570;172.580;2024-02-26T08:25:58;10.00;;;1.52;;
68854;SDS011;69984;-43.570;172.580;2024-02-26T08:28:25;16.33;;;1.75;;
68854;SDS011;69984;-43.570;172.580;2024-02-26T08:30:52;14.88;;;2.35;;
68854;SDS011;69984;-43.570;172.580;2024-02-26T08:33:19;8.80;;;2.10;;
68854;SDS011;69984;-43.570;172.580;2024-02-26T08:35:46;16.92;;;2.20;;
68854;SDS011;69984;-43.570;172.580;2024-02-26T08:38:13;15.43;;;1.88;;
68854;SDS011;69984;-43.570;172.580;2024-02-26T08:40:40;16.88;;;2.00;;
68854;SDS011;69984;-43.570;172.580;2024-02-26T08:43:07;5.75;;;1.35;;
68854;SDS011;69984;-43.570;172.580;2024-02-26T08:45:35;13.93;;;1.90;;
68854;SDS011;69984;-43.570;172.580;2024-02-26T08:48:02;8.88;;;1.83;;
68854;SDS011;69984;-43.570;172.580;2024-02-26T08:50:29;11.55;;;1.60;;
68854;SDS011;69984;-43.570;172.580;2024-02-26T08:52:56;14.48;;;2.63;;
68854;SDS011;69984;-43.570;172.580;2024-02-26T08:55:24;13.52;;;2.47;;
68854;SDS011;69984;-43.570;172.580;2024-02-26T08:57:51;9.82;;;2.20;;
68854;SDS011;69984;-43.570;172.580;2024-02-26T09:00:18;13.63;;;2.67;;
68854;SDS011;69984;-43.570;172.580;2024-02-26T09:02:47;12.13;;;2.42;;
68854;SDS011;69984;-43.570;172.580;2024-02-26T09:05:14;16.27;;;3.17;;
68854;SDS011;69984;-43.570;172.580;2024-02-26T09:07:41;13.30;;;2.65;;
68854;SDS011;69984;-43.570;172.580;2024-02-26T09:10:09;15.70;;;2.10;;
68854;SDS011;69984;-43.570;172.580;2024-02-26T09:12:36;16.45;;;1.88;;
68854;SDS011;69984;-43.570;172.580;2024-02-26T09:17:32;9.52;;;1.88;;
68854;SDS011;69984;-43.570;172.580;2024-02-26T09:19:59;12.43;;;1.75;;
68854;SDS011;69984;-43.570;172.580;2024-02-26T09:22:26;16.63;;;2.08;;
68854;SDS011;69984;-43.570;172.580;2024-02-26T09:24:53;6.47;;;2.15;;
68854;SDS011;69984;-43.570;172.580;2024-02-26T09:27:20;10.77;;;1.65;;
68854;SDS011;69984;-43.570;172.580;2024-02-26T09:29:47;10.65;;;1.77;;
68854;SDS011;69984;-43.570;172.580;2024-02-26T09:32:14;6.57;;;1.48;;
68854;SDS011;69984;-43.570;172.580;2024-02-26T09:34:42;6.32;;;1.83;;
68854;SDS011;69984;-43.570;172.580;2024-02-26T09:37:09;6.80;;;1.65;;
68854;SDS011;69984;-43.570;172.580;2024-02-26T09:39:38;13.75;;;1.73;;
68854;SDS011;69984;-43.570;172.580;2024-02-26T09:42:05;11.70;;;1.90;;
68854;SDS011;69984;-43.570;172.580;2024-02-26T09:44:36;19.42;;;2.40;;
68854;SDS011;69984;-43.570;172.580;2024-02-26T09:47:07;15.10;;;2.05;;
68854;SDS011;69984;-43.570;172.580;2024-02-26T09:49:36;7.80;;;1.60;;
68854;SDS011;69984;-43.570;172.580;2024-02-26T09:52:04;13.88;;;2.03;;
68854;SDS011;69984;-43.570;172.580;2024-02-26T09:54:32;8.65;;;1.90;;
68854;SDS011;69984;-43.570;172.580;2024-02-26T09:57:02;10.45;;;1.77;;
68854;SDS011;69984;-43.570;172.580;2024-02-26T09:59:38;10.45;;;1.60;;
68854;SDS011;69984;-43.570;172.580;2024-02-26T10:02:13;10.07;;;1.77;;
68854;SDS011;69984;-43.570;172.580;2024-02-26T10:04:41;6.88;;;1.50;;
68854;SDS011;69984;-43.570;172.580;2024-02-26T10:07:09;9.18;;;1.60;;
68854;SDS011;69984;-43.570;172.580;2024-02-26T10:09:38;7.32;;;1.70;;
68854;SDS011;69984;-43.570;172.580;2024-02-26T10:12:06;8.90;;;1.50;;
68854;SDS011;69984;-43.570;172.580;2024-02-26T10:14:36;6.43;;;1.92;;
68854;SDS011;69984;-43.570;172.580;2024-02-26T10:17:03;14.80;;;1.88;;
68854;SDS011;69984;-43.570;172.580;2024-02-26T10:19:36;11.00;;;1.42;;
68854;SDS011;69984;-43.570;172.580;2024-02-26T10:22:03;13.88;;;1.30;;
68854;SDS011;69984;-43.570;172.580;2024-02-26T10:24:30;9.25;;;1.63;;
68854;SDS011;69984;-43.570;172.580;2024-02-26T10:26:57;5.30;;;1.20;;
68854;SDS011;69984;-43.570;172.580;2024-02-26T10:29:25;7.40;;;1.65;;
68854;SDS011;69984;-43.570;172.580;2024-02-26T10:31:52;9.68;;;1.35;;
68854;SDS011;69984;-43.570;172.580;2024-02-26T10:34:20;11.70;;;1.98;;
68854;SDS011;69984;-43.570;172.580;2024-02-26T10:36:47;10.55;;;1.80;;
68854;SDS011;69984;-43.570;172.580;2024-02-26T10:39:15;10.27;;;1.58;;
68854;SDS011;69984;-43.570;172.580;2024-02-26T10:41:43;7.45;;;1.63;;
68854;SDS011;69984;-43.570;172.580;2024-02-26T10:44:11;9.13;;;1.30;;
68854;SDS011;69984;-43.570;172.580;2024-02-26T10:46:41;9.00;;;1.60;;
68854;SDS011;69984;-43.570;172.580;2024-02-26T10:49:15;6.80;;;1.38;;
68854;SDS011;69984;-43.570;172.580;2024-02-26T10:51:46;6.72;;;1.45;;
68854;SDS011;69984;-43.570;172.580;2024-02-26T10:54:29;7.18;;;1.38;;
68854;SDS011;69984;-43.570;172.580;2024-02-26T10:56:58;8.05;;;1.25;;
68854;SDS011;69984;-43.570;172.580;2024-02-26T10:59:26;7.95;;;1.15;;
68854;SDS011;69984;-43.570;172.580;2024-02-26T11:01:53;10.57;;;2.65;;
68854;SDS011;69984;-43.570;172.580;2024-02-26T11:04:21;7.82;;;1.90;;
68854;SDS011;69984;-43.570;172.580;2024-02-26T11:06:50;10.40;;;1.60;;
68854;SDS011;69984;-43.570;172.580;2024-02-26T11:09:21;8.43;;;1.77;;
68854;SDS011;69984;-43.570;172.580;2024-02-26T11:11:48;6.60;;;1.20;;
68854;SDS011;69984;-43.570;172.580;2024-02-26T11:14:20;6.90;;;1.70;;
68854;SDS011;69984;-43.570;172.580;2024-02-26T11:16:51;9.75;;;2.55;;
68854;SDS011;69984;-43.570;172.580;2024-02-26T11:19:18;9.45;;;2.10;;
68854;SDS011;69984;-43.570;172.580;2024-02-26T11:21:46;10.57;;;3.17;;
68854;SDS011;69984;-43.570;172.580;2024-02-26T11:24:14;10.68;;;2.03;;
68854;SDS011;69984;-43.570;172.580;2024-02-26T11:26:46;10.10;;;2.03;;
68854;SDS011;69984;-43.570;172.580;2024-02-26T11:29:40;9.88;;;2.55;;
68854;SDS011;69984;-43.570;172.580;2024-02-26T11:32:13;13.80;;;2.05;;
68854;SDS011;69984;-43.570;172.580;2024-02-26T11:34:41;9.30;;;1.98;;
68854;SDS011;69984;-43.570;172.580;2024-02-26T11:37:10;5.18;;;1.77;;
68854;SDS011;69984;-43.570;172.580;2024-02-26T11:39:39;6.43;;;1.60;;
68854;SDS011;69984;-43.570;172.580;2024-02-26T11:42:07;10.00;;;1.30;;
68854;SDS011;69984;-43.570;172.580;2024-02-26T11:44:35;8.80;;;1.33;;
68854;SDS011;69984;-43.570;172.580;2024-02-26T11:47:17;10.63;;;1.60;;
68854;SDS011;69984;-43.570;172.580;2024-02-26T11:49:46;9.65;;;1.95;;
68854;SDS011;69984;-43.570;172.580;2024-02-26T11:52:15;10.07;;;1.70;;
68854;SDS011;69984;-43.570;172.580;2024-02-26T11:54:48;11.25;;;2.53;;
68854;SDS011;69984;-43.570;172.580;2024-02-26T11:57:27;9.10;;;2.17;;
68854;SDS011;69984;-43.570;172.580;2024-02-26T12:07:46;15.02;;;2.10;;
68854;SDS011;69984;-43.570;172.580;2024-02-26T12:10:35;19.15;;;1.80;;
68854;SDS011;69984;-43.570;172.580;2024-02-26T12:13:07;13.90;;;2.00;;
68854;SDS011;69984;-43.570;172.580;2024-02-26T12:16:00;6.43;;;1.70;;
68854;SDS011;69984;-43.570;172.580;2024-02-26T12:18:26;10.30;;;2.58;;
68854;SDS011;69984;-43.570;172.580;2024-02-26T12:20:59;13.23;;;2.20;;
68854;SDS011;69984;-43.570;172.580;2024-02-26T12:23:29;17.23;;;3.55;;
68854;SDS011;69984;-43.570;172.580;2024-02-26T12:25:59;12.32;;;2.88;;
68854;SDS011;69984;-43.570;172.580;2024-02-26T12:28:30;21.92;;;2.33;;
68854;SDS011;69984;-43.570;172.580;2024-02-26T12:30:57;7.93;;;1.90;;
68854;SDS011;69984;-43.570;172.580;2024-02-26T12:33:25;18.35;;;4.00;;
68854;SDS011;69984;-43.570;172.580;2024-02-26T12:35:53;6.88;;;2.22;;
68854;SDS011;69984;-43.570;172.580;2024-02-26T12:38:20;5.75;;;1.92;;
68854;SDS011;69984;-43.570;172.580;2024-02-26T12:40:47;10.23;;;2.10;;
68854;SDS011;69984;-43.570;172.580;2024-02-26T12:43:14;11.07;;;2.03;;
68854;SDS011;69984;-43.570;172.580;2024-02-26T12:45:42;15.02;;;2.28;;
68854;SDS011;69984;-43.570;172.580;2024-02-26T12:48:13;16.75;;;2.33;;
68854;SDS011;69984;-43.570;172.580;2024-02-26T12:50:40;14.75;;;2.05;;
68854;SDS011;69984;-43.570;172.580;2024-02-26T12:53:12;18.30;;;2.60;;
68854;SDS011;69984;-43.570;172.580;2024-02-26T12:55:39;16.98;;;2.15;;
68854;SDS011;69984;-43.570;172.580;2024-02-26T12:58:07;8.93;;;1.92;;
68854;SDS011;69984;-43.570;172.580;2024-02-26T13:00:34;10.27;;;2.63;;
68854;SDS011;69984;-43.570;172.580;2024-02-26T13:03:02;16.88;;;1.92;;
68854;SDS011;69984;-43.570;172.580;2024-02-26T13:05:29;5.78;;;1.48;;
68854;SDS011;69984;-43.570;172.580;2024-02-26T13:07:56;13.30;;;2.60;;
68854;SDS011;69984;-43.570;172.580;2024-02-26T13:10:24;6.75;;;1.98;;
68854;SDS011;69984;-43.570;172.580;2024-02-26T13:12:51;12.63;;;2.17;;
68854;SDS011;69984;-43.570;172.580;2024-02-26T13:15:19;9.15;;;2.05;;
68854;SDS011;69984;-43.570;172.580;2024-02-26T13:17:47;11.57;;;1.85;;
68854;SDS011;69984;-43.570;172.580;2024-02-26T13:20:30;9.10;;;2.10;;
68854;SDS011;69984;-43.570;172.580;2024-02-26T13:23:03;12.73;;;2.08;;
68854;SDS011;69984;-43.570;172.580;2024-02-26T13:25:31;15.13;;;2.40;;
68854;SDS011;69984;-43.570;172.580;2024-02-26T13:30:52;19.30;;;2.00;;
68854;SDS011;69984;-43.570;172.580;2024-02-26T13:33:24;17.95;;;2.63;;
68854;SDS011;69984;-43.570;172.580;2024-02-26T13:35:51;14.80;;;2.63;;
68854;SDS011;69984;-43.570;172.580;2024-02-26T13:38:19;13.05;;;1.80;;
68854;SDS011;69984;-43.570;172.580;2024-02-26T13:40:46;12.52;;;2.80;;
68854;SDS011;69984;-43.570;172.580;2024-02-26T13:43:13;13.15;;;2.75;;
68854;SDS011;69984;-43.570;172.580;2024-02-26T13:45:40;12.88;;;2.50;;
68854;SDS011;69984;-43.570;172.580;2024-02-26T13:48:08;12.57;;;3.28;;
68854;SDS011;69984;-43.570;172.580;2024-02-26T13:50:37;16.83;;;3.17;;
68854;SDS011;69984;-43.570;172.580;2024-02-26T13:53:05;18.27;;;2.83;;
68854;SDS011;69984;-43.570;172.580;2024-02-26T13:55:32;18.65;;;2.78;;
68854;SDS011;69984;-43.570;172.580;2024-02-26T13:57:59;8.93;;;2.70;;
68854;SDS011;69984;-43.570;172.580;2024-02-26T14:00:30;15.25;;;2.70;;
68854;SDS011;69984;-43.570;172.580;2024-02-26T14:03:02;23.10;;;3.03;;
68854;SDS011;69984;-43.570;172.580;2024-02-26T14:05:29;22.02;;;3.58;;
68854;SDS011;69984;-43.570;172.580;2024-02-26T14:07:56;27.05;;;3.20;;
68854;SDS011;69984;-43.570;172.580;2024-02-26T14:10:23;29.50;;;3.47;;
68854;SDS011;69984;-43.570;172.580;2024-02-26T14:12:50;14.52;;;2.83;;
68854;SDS011;69984;-43.570;172.580;2024-02-26T14:15:17;13.00;;;2.65;;
68854;SDS011;69984;-43.570;172.580;2024-02-26T14:17:44;13.43;;;2.80;;
68854;SDS011;69984;-43.570;172.580;2024-02-26T14:20:11;22.02;;;2.42;;
68854;SDS011;69984;-43.570;172.580;2024-02-26T14:22:38;18.23;;;3.03;;
68854;SDS011;69984;-43.570;172.580;2024-02-26T14:25:05;17.88;;;3.00;;